sensor_id;sensor_type;location;lat;lon;timestamp;temperature;humidity
52211;DHT22;38179;52.756;6.906;2023-02-26T00:00:47;1.30;99.90
52211;DHT22;38179;52.756;6.906;2023-02-26T00:03:13;1.30;99.90
52211;DHT22;38179;52.756;6.906;2023-02-26T00:05:39;1.20;99.90
52211;DHT22;38179;52.756;6.906;2023-02-26T00:08:04;1.10;99.90
52211;DHT22;38179;52.756;6.906;2023-02-26T00:10:31;1.20;99.90
52211;DHT22;38179;52.756;6.906;2023-02-26T00:13:07;1.10;99.90
52211;DHT22;38179;52.756;6.906;2023-02-26T00:15:34;1.10;99.90
52211;DHT22;38179;52.756;6.906;2023-02-26T00:20:26;1.10;99.90
52211;DHT22;38179;52.756;6.906;2023-02-26T00:22:53;1.10;99.90
52211;DHT22;38179;52.756;6.906;2023-02-26T00:25:19;1.00;99.90
52211;DHT22;38179;52.756;6.906;2023-02-26T00:27:45;1.00;99.90
52211;DHT22;38179;52.756;6.906;2023-02-26T00:30:11;1.00;99.90
52211;DHT22;38179;52.756;6.906;2023-02-26T00:32:38;1.00;99.90
52211;DHT22;38179;52.756;6.906;2023-02-26T00:35:07;1.00;99.90
52211;DHT22;38179;52.756;6.906;2023-02-26T00:40:17;1.00;99.90
52211;DHT22;38179;52.756;6.906;2023-02-26T00:42:45;0.90;99.90
52211;DHT22;38179;52.756;6.906;2023-02-26T00:45:13;0.90;99.90
52211;DHT22;38179;52.756;6.906;2023-02-26T00:48:29;0.90;99.90
52211;DHT22;38179;52.756;6.906;2023-02-26T00:50:33;0.90;99.90
52211;DHT22;38179;52.756;6.906;2023-02-26T00:53:20;0.80;99.90
52211;DHT22;38179;52.756;6.906;2023-02-26T00:55:46;0.80;99.90
52211;DHT22;38179;52.756;6.906;2023-02-26T00:58:12;0.80;99.90
52211;DHT22;38179;52.756;6.906;2023-02-26T01:00:41;0.80;99.90
52211;DHT22;38179;52.756;6.906;2023-02-26T01:03:07;0.80;99.90
52211;DHT22;38179;52.756;6.906;2023-02-26T01:05:33;0.80;99.90
52211;DHT22;38179;52.756;6.906;2023-02-26T01:10:33;0.70;99.90
52211;DHT22;38179;52.756;6.906;2023-02-26T01:12:59;0.70;99.90
52211;DHT22;38179;52.756;6.906;2023-02-26T01:15:25;0.60;99.90
52211;DHT22;38179;52.756;6.906;2023-02-26T01:18:18;0.60;99.90
52211;DHT22;38179;52.756;6.906;2023-02-26T01:20:56;0.60;99.90
52211;DHT22;38179;52.756;6.906;2023-02-26T01:23:26;0.50;99.90
52211;DHT22;38179;52.756;6.906;2023-02-26T01:26:05;0.50;99.90
52211;DHT22;38179;52.756;6.906;2023-02-26T01:28:32;0.50;99.90
52211;DHT22;38179;52.756;6.906;2023-02-26T01:31:01;0.50;99.90
52211;DHT22;38179;52.756;6.906;2023-02-26T01:33:51;0.50;99.90
52211;DHT22;38179;52.756;6.906;2023-02-26T01:36:21;0.50;99.90
52211;DHT22;38179;52.756;6.906;2023-02-26T01:41:46;0.40;99.90
52211;DHT22;38179;52.756;6.906;2023-02-26T01:44:22;0.40;99.90
52211;DHT22;38179;52.756;6.906;2023-02-26T01:49:25;0.40;99.90
52211;DHT22;38179;52.756;6.906;2023-02-26T01:51:53;0.30;99.90
52211;DHT22;38179;52.756;6.906;2023-02-26T01:54:27;0.30;99.90
52211;DHT22;38179;52.756;6.906;2023-02-26T01:57:16;0.30;99.90
52211;DHT22;38179;52.756;6.906;2023-02-26T01:59:46;0.30;99.90
52211;DHT22;38179;52.756;6.906;2023-02-26T02:02:22;0.30;99.90
52211;DHT22;38179;52.756;6.906;2023-02-26T02:04:50;0.30;99.90
52211;DHT22;38179;52.756;6.906;2023-02-26T02:07:16;0.30;99.90
52211;DHT22;38179;52.756;6.906;2023-02-26T02:09:43;0.30;99.90
52211;DHT22;38179;52.756;6.906;2023-02-26T02:31:14;-0.10;99.90
52211;DHT22;38179;52.756;6.906;2023-02-26T02:34:07;0.20;99.90
52211;DHT22;38179;52.756;6.906;2023-02-26T02:42:25;0.20;99.90
52211;DHT22;38179;52.756;6.906;2023-02-26T02:45:00;0.20;99.90
52211;DHT22;38179;52.756;6.906;2023-02-26T02:47:29;0.20;99.90
52211;DHT22;38179;52.756;6.906;2023-02-26T02:53:10;0.10;99.90
52211;DHT22;38179;52.756;6.906;2023-02-26T02:58:43;0.10;99.90
52211;DHT22;38179;52.756;6.906;2023-02-26T03:01:14;0.10;99.90
52211;DHT22;38179;52.756;6.906;2023-02-26T03:04:08;0.10;99.90
52211;DHT22;38179;52.756;6.906;2023-02-26T03:06:36;0.10;99.90
52211;DHT22;38179;52.756;6.906;2023-02-26T03:09:04;0.10;99.90
52211;DHT22;38179;52.756;6.906;2023-02-26T03:11:31;0.10;99.90
52211;DHT22;38179;52.756;6.906;2023-02-26T03:13:58;0.10;99.90
52211;DHT22;38179;52.756;6.906;2023-02-26T03:19:23;0.10;99.90
52211;DHT22;38179;52.756;6.906;2023-02-26T03:24:45;0.10;99.90
52211;DHT22;38179;52.756;6.906;2023-02-26T03:27:34;0.10;99.90
52211;DHT22;38179;52.756;6.906;2023-02-26T03:30:05;0.10;99.90
52211;DHT22;38179;52.756;6.906;2023-02-26T03:35:34;0.10;99.90
52211;DHT22;38179;52.756;6.906;2023-02-26T03:38:06;0.10;99.90
52211;DHT22;38179;52.756;6.906;2023-02-26T03:40:52;0.00;99.90
52211;DHT22;38179;52.756;6.906;2023-02-26T03:43:34;0.00;99.90
52211;DHT22;38179;52.756;6.906;2023-02-26T03:46:06;0.00;99.90
52211;DHT22;38179;52.756;6.906;2023-02-26T03:48:35;0.00;99.90
52211;DHT22;38179;52.756;6.906;2023-02-26T03:51:06;0.00;99.90
52211;DHT22;38179;52.756;6.906;2023-02-26T03:53:51;0.00;99.90
52211;DHT22;38179;52.756;6.906;2023-02-26T03:56:38;0.00;99.90
52211;DHT22;38179;52.756;6.906;2023-02-26T03:59:05;0.00;99.90
52211;DHT22;38179;52.756;6.906;2023-02-26T04:01:48;0.00;99.90
52211;DHT22;38179;52.756;6.906;2023-02-26T04:06:50;-0.10;99.90
52211;DHT22;38179;52.756;6.906;2023-02-26T04:09:19;-0.10;99.90
52211;DHT22;38179;52.756;6.906;2023-02-26T04:11:46;-0.10;99.90
52211;DHT22;38179;52.756;6.906;2023-02-26T04:14:13;-0.10;99.90
52211;DHT22;38179;52.756;6.906;2023-02-26T04:16:40;-0.10;99.90
52211;DHT22;38179;52.756;6.906;2023-02-26T04:19:06;-0.10;99.90
52211;DHT22;38179;52.756;6.906;2023-02-26T04:21:32;-0.10;99.90
52211;DHT22;38179;52.756;6.906;2023-02-26T04:23:58;-0.10;99.90
52211;DHT22;38179;52.756;6.906;2023-02-26T04:26:24;-0.10;99.90
52211;DHT22;38179;52.756;6.906;2023-02-26T04:28:49;-0.10;99.90
52211;DHT22;38179;52.756;6.906;2023-02-26T04:31:15;-0.10;99.90
52211;DHT22;38179;52.756;6.906;2023-02-26T04:33:41;-0.20;99.90
52211;DHT22;38179;52.756;6.906;2023-02-26T04:36:08;-0.20;99.90
52211;DHT22;38179;52.756;6.906;2023-02-26T04:38:34;-0.20;99.90
52211;DHT22;38179;52.756;6.906;2023-02-26T04:41:00;-0.20;99.90
52211;DHT22;38179;52.756;6.906;2023-02-26T04:43:27;-0.20;99.90
52211;DHT22;38179;52.756;6.906;2023-02-26T04:45:53;-0.20;99.90
52211;DHT22;38179;52.756;6.906;2023-02-26T04:48:19;-0.20;99.90
52211;DHT22;38179;52.756;6.906;2023-02-26T04:53:36;-0.20;99.90
52211;DHT22;38179;52.756;6.906;2023-02-26T04:56:02;-0.20;99.90
52211;DHT22;38179;52.756;6.906;2023-02-26T04:58:27;-0.30;99.90
52211;DHT22;38179;52.756;6.906;2023-02-26T05:00:53;-0.20;99.90
52211;DHT22;38179;52.756;6.906;2023-02-26T05:03:20;-0.20;99.90
52211;DHT22;38179;52.756;6.906;2023-02-26T05:05:48;-0.30;99.90
52211;DHT22;38179;52.756;6.906;2023-02-26T05:08:13;-0.20;99.90
52211;DHT22;38179;52.756;6.906;2023-02-26T05:10:42;-0.30;99.90
52211;DHT22;38179;52.756;6.906;2023-02-26T05:13:08;-0.30;99.90
52211;DHT22;38179;52.756;6.906;2023-02-26T05:15:34;-0.30;99.90
52211;DHT22;38179;52.756;6.906;2023-02-26T05:18:00;-0.30;99.90
52211;DHT22;38179;52.756;6.906;2023-02-26T05:20:26;-0.30;99.90
52211;DHT22;38179;52.756;6.906;2023-02-26T05:22:51;-0.30;99.90
52211;DHT22;38179;52.756;6.906;2023-02-26T05:25:18;-0.30;99.90
52211;DHT22;38179;52.756;6.906;2023-02-26T05:27:43;-0.30;99.90
52211;DHT22;38179;52.756;6.906;2023-02-26T05:30:12;-0.30;99.90
52211;DHT22;38179;52.756;6.906;2023-02-26T05:32:39;-0.30;99.90
52211;DHT22;38179;52.756;6.906;2023-02-26T05:35:05;-0.30;99.90
52211;DHT22;38179;52.756;6.906;2023-02-26T05:37:31;-0.30;99.90
52211;DHT22;38179;52.756;6.906;2023-02-26T05:39:57;-0.30;99.90
52211;DHT22;38179;52.756;6.906;2023-02-26T05:42:23;-0.30;99.90
52211;DHT22;38179;52.756;6.906;2023-02-26T05:44:49;-0.30;99.90
52211;DHT22;38179;52.756;6.906;2023-02-26T05:47:16;-0.30;99.90
52211;DHT22;38179;52.756;6.906;2023-02-26T05:49:42;-0.30;99.90
52211;DHT22;38179;52.756;6.906;2023-02-26T05:52:08;-0.40;99.90
52211;DHT22;38179;52.756;6.906;2023-02-26T05:54:34;-0.30;99.90
52211;DHT22;38179;52.756;6.906;2023-02-26T05:57:00;-0.30;99.90
52211;DHT22;38179;52.756;6.906;2023-02-26T05:59:26;-0.40;99.90
52211;DHT22;38179;52.756;6.906;2023-02-26T06:01:52;-0.40;99.90
52211;DHT22;38179;52.756;6.906;2023-02-26T06:04:17;-0.40;99.90
52211;DHT22;38179;52.756;6.906;2023-02-26T06:06:43;-0.40;99.90
52211;DHT22;38179;52.756;6.906;2023-02-26T06:09:09;-0.40;99.90
52211;DHT22;38179;52.756;6.906;2023-02-26T06:11:35;-0.40;99.90
52211;DHT22;38179;52.756;6.906;2023-02-26T06:14:03;-0.40;99.90
52211;DHT22;38179;52.756;6.906;2023-02-26T06:16:28;-0.40;99.90
52211;DHT22;38179;52.756;6.906;2023-02-26T06:18:54;-0.40;99.90
52211;DHT22;38179;52.756;6.906;2023-02-26T06:21:20;-0.50;99.90
52211;DHT22;38179;52.756;6.906;2023-02-26T06:23:46;-0.50;99.90
52211;DHT22;38179;52.756;6.906;2023-02-26T06:26:12;-0.40;99.90
52211;DHT22;38179;52.756;6.906;2023-02-26T06:28:38;-0.50;99.90
52211;DHT22;38179;52.756;6.906;2023-02-26T06:31:04;-0.50;99.90
52211;DHT22;38179;52.756;6.906;2023-02-26T06:33:30;-0.50;99.90
52211;DHT22;38179;52.756;6.906;2023-02-26T06:35:56;-0.50;99.90
52211;DHT22;38179;52.756;6.906;2023-02-26T06:38:23;-0.50;99.90
52211;DHT22;38179;52.756;6.906;2023-02-26T06:40:49;-0.50;99.90
52211;DHT22;38179;52.756;6.906;2023-02-26T06:43:15;-0.50;99.90
52211;DHT22;38179;52.756;6.906;2023-02-26T06:45:41;-0.50;99.90
52211;DHT22;38179;52.756;6.906;2023-02-26T06:48:07;-0.50;99.90
52211;DHT22;38179;52.756;6.906;2023-02-26T06:50:33;-0.50;99.90
52211;DHT22;38179;52.756;6.906;2023-02-26T06:52:58;-0.50;99.90
52211;DHT22;38179;52.756;6.906;2023-02-26T06:55:26;-0.50;99.90
52211;DHT22;38179;52.756;6.906;2023-02-26T06:57:56;-0.50;99.90
52211;DHT22;38179;52.756;6.906;2023-02-26T07:00:23;-0.50;99.90
52211;DHT22;38179;52.756;6.906;2023-02-26T07:02:50;-0.50;99.90
52211;DHT22;38179;52.756;6.906;2023-02-26T07:05:16;-0.40;99.90
52211;DHT22;38179;52.756;6.906;2023-02-26T07:07:43;-0.40;99.90
52211;DHT22;38179;52.756;6.906;2023-02-26T07:10:10;-0.40;99.90
52211;DHT22;38179;52.756;6.906;2023-02-26T07:12:36;-0.80;99.90
52211;DHT22;38179;52.756;6.906;2023-02-26T07:15:04;-0.40;99.90
52211;DHT22;38179;52.756;6.906;2023-02-26T07:17:31;-0.40;99.90
52211;DHT22;38179;52.756;6.906;2023-02-26T07:19:57;-0.30;99.90
52211;DHT22;38179;52.756;6.906;2023-02-26T07:22:23;-0.30;99.90
52211;DHT22;38179;52.756;6.906;2023-02-26T07:24:49;-0.30;99.90
52211;DHT22;38179;52.756;6.906;2023-02-26T07:27:16;-0.20;99.90
52211;DHT22;38179;52.756;6.906;2023-02-26T07:29:42;-0.20;99.90
52211;DHT22;38179;52.756;6.906;2023-02-26T07:32:07;-0.20;99.90
52211;DHT22;38179;52.756;6.906;2023-02-26T07:34:33;-0.10;99.90
52211;DHT22;38179;52.756;6.906;2023-02-26T07:36:59;-0.10;99.90
52211;DHT22;38179;52.756;6.906;2023-02-26T07:39:26;-0.10;99.90
52211;DHT22;38179;52.756;6.906;2023-02-26T07:41:52;-0.10;99.90
52211;DHT22;38179;52.756;6.906;2023-02-26T07:44:18;0.00;99.90
52211;DHT22;38179;52.756;6.906;2023-02-26T07:46:45;0.00;99.90
52211;DHT22;38179;52.756;6.906;2023-02-26T07:49:10;0.00;99.90
52211;DHT22;38179;52.756;6.906;2023-02-26T07:51:36;0.00;99.90
52211;DHT22;38179;52.756;6.906;2023-02-26T07:54:02;0.00;99.90
52211;DHT22;38179;52.756;6.906;2023-02-26T07:56:28;0.00;99.90
52211;DHT22;38179;52.756;6.906;2023-02-26T07:58:54;0.10;99.90
52211;DHT22;38179;52.756;6.906;2023-02-26T08:01:20;0.10;99.90
52211;DHT22;38179;52.756;6.906;2023-02-26T08:03:46;0.20;99.90
52211;DHT22;38179;52.756;6.906;2023-02-26T08:06:12;0.20;99.90
52211;DHT22;38179;52.756;6.906;2023-02-26T08:08:38;0.20;99.90
52211;DHT22;38179;52.756;6.906;2023-02-26T08:11:04;0.30;99.90
52211;DHT22;38179;52.756;6.906;2023-02-26T08:13:30;0.30;99.90
52211;DHT22;38179;52.756;6.906;2023-02-26T08:15:56;0.40;99.90
52211;DHT22;38179;52.756;6.906;2023-02-26T08:18:22;0.40;99.90
52211;DHT22;38179;52.756;6.906;2023-02-26T08:20:50;0.50;99.90
52211;DHT22;38179;52.756;6.906;2023-02-26T08:23:17;0.50;99.90
52211;DHT22;38179;52.756;6.906;2023-02-26T08:25:43;0.60;99.90
52211;DHT22;38179;52.756;6.906;2023-02-26T08:28:10;0.60;99.90
52211;DHT22;38179;52.756;6.906;2023-02-26T08:30:36;0.70;99.90
52211;DHT22;38179;52.756;6.906;2023-02-26T08:33:03;0.70;99.90
52211;DHT22;38179;52.756;6.906;2023-02-26T08:35:29;0.70;99.90
52211;DHT22;38179;52.756;6.906;2023-02-26T08:37:57;0.80;99.90
52211;DHT22;38179;52.756;6.906;2023-02-26T08:40:24;0.80;99.90
52211;DHT22;38179;52.756;6.906;2023-02-26T08:42:50;0.90;99.90
52211;DHT22;38179;52.756;6.906;2023-02-26T08:45:16;0.90;99.90
52211;DHT22;38179;52.756;6.906;2023-02-26T08:47:42;0.90;99.90
52211;DHT22;38179;52.756;6.906;2023-02-26T08:50:10;0.90;99.90
52211;DHT22;38179;52.756;6.906;2023-02-26T08:52:36;1.00;99.90
52211;DHT22;38179;52.756;6.906;2023-02-26T08:55:03;1.10;99.90
52211;DHT22;38179;52.756;6.906;2023-02-26T08:57:29;1.10;99.90
52211;DHT22;38179;52.756;6.906;2023-02-26T08:59:55;1.20;99.90
52211;DHT22;38179;52.756;6.906;2023-02-26T09:02:21;1.20;99.90
52211;DHT22;38179;52.756;6.906;2023-02-26T09:04:47;1.30;99.90
52211;DHT22;38179;52.756;6.906;2023-02-26T09:07:13;1.30;99.90
52211;DHT22;38179;52.756;6.906;2023-02-26T09:09:39;1.30;99.90
52211;DHT22;38179;52.756;6.906;2023-02-26T09:12:05;1.40;99.90
52211;DHT22;38179;52.756;6.906;2023-02-26T09:14:30;1.40;99.90
52211;DHT22;38179;52.756;6.906;2023-02-26T09:16:56;1.50;99.90
52211;DHT22;38179;52.756;6.906;2023-02-26T09:19:22;1.50;99.90
52211;DHT22;38179;52.756;6.906;2023-02-26T09:21:48;1.60;99.90
52211;DHT22;38179;52.756;6.906;2023-02-26T09:24:15;1.70;99.90
52211;DHT22;38179;52.756;6.906;2023-02-26T09:26:41;1.70;99.90
52211;DHT22;38179;52.756;6.906;2023-02-26T09:29:07;1.80;99.90
52211;DHT22;38179;52.756;6.906;2023-02-26T09:31:33;1.80;99.90
52211;DHT22;38179;52.756;6.906;2023-02-26T09:33:59;1.90;99.90
52211;DHT22;38179;52.756;6.906;2023-02-26T09:36:24;2.00;99.90
52211;DHT22;38179;52.756;6.906;2023-02-26T09:38:51;2.00;99.90
52211;DHT22;38179;52.756;6.906;2023-02-26T09:41:32;2.00;99.90
52211;DHT22;38179;52.756;6.906;2023-02-26T09:44:09;2.10;99.90
52211;DHT22;38179;52.756;6.906;2023-02-26T09:47:14;2.10;99.90
52211;DHT22;38179;52.756;6.906;2023-02-26T09:50:05;2.20;99.90
52211;DHT22;38179;52.756;6.906;2023-02-26T09:52:43;2.30;99.90
52211;DHT22;38179;52.756;6.906;2023-02-26T09:58:00;2.40;99.90
52211;DHT22;38179;52.756;6.906;2023-02-26T10:00:47;2.50;99.90
52211;DHT22;38179;52.756;6.906;2023-02-26T10:14:43;2.80;99.90
52211;DHT22;38179;52.756;6.906;2023-02-26T10:17:21;2.80;99.90
52211;DHT22;38179;52.756;6.906;2023-02-26T10:19:51;2.90;99.90
52211;DHT22;38179;52.756;6.906;2023-02-26T10:25:00;3.00;99.90
52211;DHT22;38179;52.756;6.906;2023-02-26T10:28:05;3.00;99.90
52211;DHT22;38179;52.756;6.906;2023-02-26T10:30:42;3.10;99.90
52211;DHT22;38179;52.756;6.906;2023-02-26T10:35:52;3.20;99.90
52211;DHT22;38179;52.756;6.906;2023-02-26T10:38:24;3.20;99.90
52211;DHT22;38179;52.756;6.906;2023-02-26T10:41:04;3.30;99.90
52211;DHT22;38179;52.756;6.906;2023-02-26T10:48:51;3.40;99.90
52211;DHT22;38179;52.756;6.906;2023-02-26T10:51:24;3.50;99.90
52211;DHT22;38179;52.756;6.906;2023-02-26T10:54:12;3.60;99.90
52211;DHT22;38179;52.756;6.906;2023-02-26T10:56:39;3.60;99.90
52211;DHT22;38179;52.756;6.906;2023-02-26T10:59:05;3.70;99.90
52211;DHT22;38179;52.756;6.906;2023-02-26T11:01:31;3.70;99.90
52211;DHT22;38179;52.756;6.906;2023-02-26T11:04:13;3.80;99.90
52211;DHT22;38179;52.756;6.906;2023-02-26T11:09:23;3.90;99.90
52211;DHT22;38179;52.756;6.906;2023-02-26T11:12:00;4.00;99.90
52211;DHT22;38179;52.756;6.906;2023-02-26T11:14:31;4.00;99.90
52211;DHT22;38179;52.756;6.906;2023-02-26T11:17:00;4.00;99.90
52211;DHT22;38179;52.756;6.906;2023-02-26T11:19:37;4.00;99.90
52211;DHT22;38179;52.756;6.906;2023-02-26T11:22:04;4.10;99.90
52211;DHT22;38179;52.756;6.906;2023-02-26T11:24:40;4.10;99.90
52211;DHT22;38179;52.756;6.906;2023-02-26T11:27:21;4.20;99.90
52211;DHT22;38179;52.756;6.906;2023-02-26T11:29:53;4.20;99.90
52211;DHT22;38179;52.756;6.906;2023-02-26T11:32:28;4.30;99.90
52211;DHT22;38179;52.756;6.906;2023-02-26T11:34:54;4.20;99.90
52211;DHT22;38179;52.756;6.906;2023-02-26T11:37:23;4.30;99.90
52211;DHT22;38179;52.756;6.906;2023-02-26T11:42:51;4.30;99.90
52211;DHT22;38179;52.756;6.906;2023-02-26T11:45:19;4.30;99.90
52211;DHT22;38179;52.756;6.906;2023-02-26T11:47:47;4.30;99.90
52211;DHT22;38179;52.756;6.906;2023-02-26T11:50:19;4.20;99.90
52211;DHT22;38179;52.756;6.906;2023-02-26T11:52:55;4.30;99.90
52211;DHT22;38179;52.756;6.906;2023-02-26T11:55:37;4.30;99.90
52211;DHT22;38179;52.756;6.906;2023-02-26T11:58:21;4.50;99.90
52211;DHT22;38179;52.756;6.906;2023-02-26T12:00:50;4.50;99.90
52211;DHT22;38179;52.756;6.906;2023-02-26T12:03:19;4.50;99.90
52211;DHT22;38179;52.756;6.906;2023-02-26T12:05:45;4.60;99.90
52211;DHT22;38179;52.756;6.906;2023-02-26T12:14:00;4.70;99.90
52211;DHT22;38179;52.756;6.906;2023-02-26T12:28:19;4.90;99.90
52211;DHT22;38179;52.756;6.906;2023-02-26T12:31:01;4.90;99.90
52211;DHT22;38179;52.756;6.906;2023-02-26T12:33:39;5.00;99.90
52211;DHT22;38179;52.756;6.906;2023-02-26T12:44:26;5.40;99.90
52211;DHT22;38179;52.756;6.906;2023-02-26T13:01:11;5.70;99.90
52211;DHT22;38179;52.756;6.906;2023-02-26T13:15:00;5.10;99.90
52211;DHT22;38179;52.756;6.906;2023-02-26T13:20:19;5.00;99.90
52211;DHT22;38179;52.756;6.906;2023-02-26T13:22:47;5.00;99.90
52211;DHT22;38179;52.756;6.906;2023-02-26T13:25:50;5.20;99.90
52211;DHT22;38179;52.756;6.906;2023-02-26T13:31:12;5.40;99.90
52211;DHT22;38179;52.756;6.906;2023-02-26T13:33:40;5.40;99.90
52211;DHT22;38179;52.756;6.906;2023-02-26T13:36:09;5.50;99.90
52211;DHT22;38179;52.756;6.906;2023-02-26T13:52:31;5.70;99.90
52211;DHT22;38179;52.756;6.906;2023-02-26T13:54:58;5.70;99.90
52211;DHT22;38179;52.756;6.906;2023-02-26T13:57:36;5.70;99.90
52211;DHT22;38179;52.756;6.906;2023-02-26T14:00:44;5.60;99.90
52211;DHT22;38179;52.756;6.906;2023-02-26T14:03:11;5.60;99.90
52211;DHT22;38179;52.756;6.906;2023-02-26T14:06:24;5.50;99.90
52211;DHT22;38179;52.756;6.906;2023-02-26T14:08:54;5.50;99.90
52211;DHT22;38179;52.756;6.906;2023-02-26T14:11:37;5.40;99.90
52211;DHT22;38179;52.756;6.906;2023-02-26T14:16:34;5.30;99.90
52211;DHT22;38179;52.756;6.906;2023-02-26T14:19:13;5.40;99.90
52211;DHT22;38179;52.756;6.906;2023-02-26T14:21:54;5.40;99.90
52211;DHT22;38179;52.756;6.906;2023-02-26T14:24:32;5.50;99.90
52211;DHT22;38179;52.756;6.906;2023-02-26T14:29:59;5.60;99.90
52211;DHT22;38179;52.756;6.906;2023-02-26T14:32:30;5.60;99.90
52211;DHT22;38179;52.756;6.906;2023-02-26T14:35:02;5.50;99.90
52211;DHT22;38179;52.756;6.906;2023-02-26T14:37:29;5.50;99.90
52211;DHT22;38179;52.756;6.906;2023-02-26T14:40:15;5.40;99.90
52211;DHT22;38179;52.756;6.906;2023-02-26T14:42:46;5.40;99.90
52211;DHT22;38179;52.756;6.906;2023-02-26T14:47:46;5.50;99.90
52211;DHT22;38179;52.756;6.906;2023-02-26T14:50:22;5.60;99.90
52211;DHT22;38179;52.756;6.906;2023-02-26T14:53:16;5.60;99.90
52211;DHT22;38179;52.756;6.906;2023-02-26T14:58:59;5.30;99.90
52211;DHT22;38179;52.756;6.906;2023-02-26T15:02:13;5.30;99.90
52211;DHT22;38179;52.756;6.906;2023-02-26T15:05:03;5.30;99.90
52211;DHT22;38179;52.756;6.906;2023-02-26T15:17:29;5.10;99.90
52211;DHT22;38179;52.756;6.906;2023-02-26T15:25:29;5.00;99.90
52211;DHT22;38179;52.756;6.906;2023-02-26T15:27:56;5.00;99.90
52211;DHT22;38179;52.756;6.906;2023-02-26T15:30:22;5.00;99.90
52211;DHT22;38179;52.756;6.906;2023-02-26T15:32:56;4.90;99.90
52211;DHT22;38179;52.756;6.906;2023-02-26T15:35:22;4.90;99.90
52211;DHT22;38179;52.756;6.906;2023-02-26T15:37:53;4.80;99.90
52211;DHT22;38179;52.756;6.906;2023-02-26T15:40:21;4.70;99.90
52211;DHT22;38179;52.756;6.906;2023-02-26T15:42:53;4.70;99.90
52211;DHT22;38179;52.756;6.906;2023-02-26T15:45:33;4.60;99.90
52211;DHT22;38179;52.756;6.906;2023-02-26T15:48:23;4.60;99.90
52211;DHT22;38179;52.756;6.906;2023-02-26T15:50:56;4.60;99.90
52211;DHT22;38179;52.756;6.906;2023-02-26T15:53:30;4.50;99.90
52211;DHT22;38179;52.756;6.906;2023-02-26T15:55:59;4.50;99.90
52211;DHT22;38179;52.756;6.906;2023-02-26T15:58:41;4.50;99.90
52211;DHT22;38179;52.756;6.906;2023-02-26T16:01:21;4.40;99.90
52211;DHT22;38179;52.756;6.906;2023-02-26T16:03:50;4.40;99.90
52211;DHT22;38179;52.756;6.906;2023-02-26T16:06:25;4.50;99.90
52211;DHT22;38179;52.756;6.906;2023-02-26T16:08:52;4.60;99.90
52211;DHT22;38179;52.756;6.906;2023-02-26T16:11:19;4.60;99.90
52211;DHT22;38179;52.756;6.906;2023-02-26T16:13:47;4.60;99.90
52211;DHT22;38179;52.756;6.906;2023-02-26T16:16:21;4.60;99.90
52211;DHT22;38179;52.756;6.906;2023-02-26T16:18:49;4.50;99.90
52211;DHT22;38179;52.756;6.906;2023-02-26T16:21:32;4.60;99.90
52211;DHT22;38179;52.756;6.906;2023-02-26T16:24:00;4.50;99.90
52211;DHT22;38179;52.756;6.906;2023-02-26T16:26:37;4.50;99.90
52211;DHT22;38179;52.756;6.906;2023-02-26T16:29:16;4.50;99.90
52211;DHT22;38179;52.756;6.906;2023-02-26T16:31:49;4.40;99.90
52211;DHT22;38179;52.756;6.906;2023-02-26T16:39:56;4.10;99.90
52211;DHT22;38179;52.756;6.906;2023-02-26T16:42:35;4.00;99.90
52211;DHT22;38179;52.756;6.906;2023-02-26T16:48:05;3.80;99.90
52211;DHT22;38179;52.756;6.906;2023-02-26T16:50:35;3.70;99.90
52211;DHT22;38179;52.756;6.906;2023-02-26T16:53:07;3.60;99.90
52211;DHT22;38179;52.756;6.906;2023-02-26T16:55:36;3.60;99.90
52211;DHT22;38179;52.756;6.906;2023-02-26T16:58:06;3.50;99.90
52211;DHT22;38179;52.756;6.906;2023-02-26T17:00:34;3.50;99.90
52211;DHT22;38179;52.756;6.906;2023-02-26T17:03:17;3.50;99.90
52211;DHT22;38179;52.756;6.906;2023-02-26T17:06:04;3.40;99.90
52211;DHT22;38179;52.756;6.906;2023-02-26T17:08:33;3.40;99.90
52211;DHT22;38179;52.756;6.906;2023-02-26T17:11:06;3.30;99.90
52211;DHT22;38179;52.756;6.906;2023-02-26T17:13:34;3.30;99.90
52211;DHT22;38179;52.756;6.906;2023-02-26T17:16:02;3.30;99.90
52211;DHT22;38179;52.756;6.906;2023-02-26T17:18:29;3.20;99.90
52211;DHT22;38179;52.756;6.906;2023-02-26T17:20:55;3.20;99.90
52211;DHT22;38179;52.756;6.906;2023-02-26T17:23:28;3.20;99.90
52211;DHT22;38179;52.756;6.906;2023-02-26T17:25:55;3.10;99.90
52211;DHT22;38179;52.756;6.906;2023-02-26T17:28:24;3.00;99.90
52211;DHT22;38179;52.756;6.906;2023-02-26T17:30:51;2.90;99.90
52211;DHT22;38179;52.756;6.906;2023-02-26T17:33:18;2.90;99.90
52211;DHT22;38179;52.756;6.906;2023-02-26T17:35:44;2.90;99.90
52211;DHT22;38179;52.756;6.906;2023-02-26T17:38:14;2.90;99.90
52211;DHT22;38179;52.756;6.906;2023-02-26T17:40:44;2.90;99.90
52211;DHT22;38179;52.756;6.906;2023-02-26T17:43:12;2.90;99.90
52211;DHT22;38179;52.756;6.906;2023-02-26T17:45:39;2.90;99.90
52211;DHT22;38179;52.756;6.906;2023-02-26T17:48:06;2.90;99.90
52211;DHT22;38179;52.756;6.906;2023-02-26T17:53:02;2.80;99.90
52211;DHT22;38179;52.756;6.906;2023-02-26T17:55:29;2.80;99.90
52211;DHT22;38179;52.756;6.906;2023-02-26T17:57:56;2.80;99.90
52211;DHT22;38179;52.756;6.906;2023-02-26T18:00:22;2.80;99.90
52211;DHT22;38179;52.756;6.906;2023-02-26T18:02:49;2.80;99.90
52211;DHT22;38179;52.756;6.906;2023-02-26T18:05:18;2.80;99.90
52211;DHT22;38179;52.756;6.906;2023-02-26T18:07:46;2.80;99.90
52211;DHT22;38179;52.756;6.906;2023-02-26T18:10:19;2.80;99.90
52211;DHT22;38179;52.756;6.906;2023-02-26T18:12:45;2.80;99.90
52211;DHT22;38179;52.756;6.906;2023-02-26T18:15:12;2.80;99.90
52211;DHT22;38179;52.756;6.906;2023-02-26T18:17:38;2.90;99.90
52211;DHT22;38179;52.756;6.906;2023-02-26T18:20:05;2.80;99.90
52211;DHT22;38179;52.756;6.906;2023-02-26T18:22:32;2.80;99.90
52211;DHT22;38179;52.756;6.906;2023-02-26T18:24:58;2.80;99.90
52211;DHT22;38179;52.756;6.906;2023-02-26T18:27:25;2.80;99.90
52211;DHT22;38179;52.756;6.906;2023-02-26T18:29:52;2.80;99.90
52211;DHT22;38179;52.756;6.906;2023-02-26T18:32:21;2.80;99.90
52211;DHT22;38179;52.756;6.906;2023-02-26T18:34:48;2.80;99.90
52211;DHT22;38179;52.756;6.906;2023-02-26T18:37:17;2.80;99.90
52211;DHT22;38179;52.756;6.906;2023-02-26T18:39:43;2.80;99.90
52211;DHT22;38179;52.756;6.906;2023-02-26T18:42:26;2.80;99.90
52211;DHT22;38179;52.756;6.906;2023-02-26T18:44:53;2.80;99.90
52211;DHT22;38179;52.756;6.906;2023-02-26T18:47:20;2.70;99.90
52211;DHT22;38179;52.756;6.906;2023-02-26T18:49:48;2.70;99.90
52211;DHT22;38179;52.756;6.906;2023-02-26T18:52:14;2.70;99.90
52211;DHT22;38179;52.756;6.906;2023-02-26T18:54:40;2.70;99.90
52211;DHT22;38179;52.756;6.906;2023-02-26T18:57:07;2.70;99.90
52211;DHT22;38179;52.756;6.906;2023-02-26T18:59:34;2.70;99.90
52211;DHT22;38179;52.756;6.906;2023-02-26T19:02:01;2.70;99.90
52211;DHT22;38179;52.756;6.906;2023-02-26T19:04:27;2.70;99.90
52211;DHT22;38179;52.756;6.906;2023-02-26T19:06:53;2.70;99.90
52211;DHT22;38179;52.756;6.906;2023-02-26T19:09:19;2.70;99.90
52211;DHT22;38179;52.756;6.906;2023-02-26T19:11:45;2.70;99.90
52211;DHT22;38179;52.756;6.906;2023-02-26T19:14:11;2.70;99.90
52211;DHT22;38179;52.756;6.906;2023-02-26T19:16:37;2.70;99.90
52211;DHT22;38179;52.756;6.906;2023-02-26T19:19:05;2.70;99.90